sensor_id;sensor_type;location;lat;lon;timestamp;temperature;humidity
7129;DHT22;3606;52.930;8.644;2023-02-15T00:01:07;0.60;99.90
7129;DHT22;3606;52.930;8.644;2023-02-15T00:03:33;0.70;99.90
7129;DHT22;3606;52.930;8.644;2023-02-15T00:05:59;0.50;99.90
7129;DHT22;3606;52.930;8.644;2023-02-15T00:08:24;0.40;99.90
7129;DHT22;3606;52.930;8.644;2023-02-15T00:10:50;0.30;99.90
7129;DHT22;3606;52.930;8.644;2023-02-15T00:13:15;0.20;99.90
7129;DHT22;3606;52.930;8.644;2023-02-15T00:15:41;0.10;99.90
7129;DHT22;3606;52.930;8.644;2023-02-15T00:18:06;0.00;99.90
7129;DHT22;3606;52.930;8.644;2023-02-15T00:20:32;0.10;99.90
7129;DHT22;3606;52.930;8.644;2023-02-15T00:22:58;0.10;99.90
7129;DHT22;3606;52.930;8.644;2023-02-15T00:25:25;0.10;99.90
7129;DHT22;3606;52.930;8.644;2023-02-15T00:27:50;0.20;99.90
7129;DHT22;3606;52.930;8.644;2023-02-15T00:30:16;0.20;99.90
7129;DHT22;3606;52.930;8.644;2023-02-15T00:32:41;0.30;99.90
7129;DHT22;3606;52.930;8.644;2023-02-15T00:35:07;0.20;99.90
7129;DHT22;3606;52.930;8.644;2023-02-15T00:37:34;0.10;99.90
7129;DHT22;3606;52.930;8.644;2023-02-15T00:40:00;0.10;99.90
7129;DHT22;3606;52.930;8.644;2023-02-15T00:42:26;0.20;99.90
7129;DHT22;3606;52.930;8.644;2023-02-15T00:44:51;0.30;99.90
7129;DHT22;3606;52.930;8.644;2023-02-15T00:47:17;0.40;99.90
7129;DHT22;3606;52.930;8.644;2023-02-15T00:49:43;0.30;99.90
7129;DHT22;3606;52.930;8.644;2023-02-15T00:52:08;0.30;99.90
7129;DHT22;3606;52.930;8.644;2023-02-15T00:54:34;0.20;99.90
7129;DHT22;3606;52.930;8.644;2023-02-15T00:57:00;0.10;99.90
7129;DHT22;3606;52.930;8.644;2023-02-15T00:59:26;0.00;99.90
7129;DHT22;3606;52.930;8.644;2023-02-15T01:01:51;0.10;99.90
7129;DHT22;3606;52.930;8.644;2023-02-15T01:04:17;0.20;99.90
7129;DHT22;3606;52.930;8.644;2023-02-15T01:06:42;0.20;99.90
7129;DHT22;3606;52.930;8.644;2023-02-15T01:09:08;0.20;99.90
7129;DHT22;3606;52.930;8.644;2023-02-15T01:11:33;0.20;99.90
7129;DHT22;3606;52.930;8.644;2023-02-15T01:13:59;0.10;99.90
7129;DHT22;3606;52.930;8.644;2023-02-15T01:16:27;0.00;99.90
7129;DHT22;3606;52.930;8.644;2023-02-15T01:18:53;-0.10;99.90
7129;DHT22;3606;52.930;8.644;2023-02-15T01:21:21;-0.10;99.90
7129;DHT22;3606;52.930;8.644;2023-02-15T01:23:48;0.10;99.90
7129;DHT22;3606;52.930;8.644;2023-02-15T01:26:14;0.20;99.90
7129;DHT22;3606;52.930;8.644;2023-02-15T01:28:40;0.30;99.90
7129;DHT22;3606;52.930;8.644;2023-02-15T01:31:14;0.30;99.90
7129;DHT22;3606;52.930;8.644;2023-02-15T01:33:40;0.30;99.90
7129;DHT22;3606;52.930;8.644;2023-02-15T01:36:06;0.20;99.90
7129;DHT22;3606;52.930;8.644;2023-02-15T01:38:32;0.00;99.90
7129;DHT22;3606;52.930;8.644;2023-02-15T01:40:58;-0.10;99.90
7129;DHT22;3606;52.930;8.644;2023-02-15T01:43:47;-0.30;99.90
7129;DHT22;3606;52.930;8.644;2023-02-15T01:46:14;-0.40;99.90
7129;DHT22;3606;52.930;8.644;2023-02-15T01:48:47;0.00;99.90
7129;DHT22;3606;52.930;8.644;2023-02-15T01:51:14;0.10;99.90
7129;DHT22;3606;52.930;8.644;2023-02-15T01:53:45;0.10;99.90
7129;DHT22;3606;52.930;8.644;2023-02-15T01:56:23;0.00;99.90
7129;DHT22;3606;52.930;8.644;2023-02-15T01:58:51;-0.10;99.90
7129;DHT22;3606;52.930;8.644;2023-02-15T02:01:19;-0.20;99.90
7129;DHT22;3606;52.930;8.644;2023-02-15T02:03:59;-0.30;99.90
7129;DHT22;3606;52.930;8.644;2023-02-15T02:06:27;-0.30;99.90
7129;DHT22;3606;52.930;8.644;2023-02-15T02:08:54;-0.30;99.90
7129;DHT22;3606;52.930;8.644;2023-02-15T02:11:20;-0.40;99.90
7129;DHT22;3606;52.930;8.644;2023-02-15T02:13:46;-0.30;99.90
7129;DHT22;3606;52.930;8.644;2023-02-15T02:19:19;-0.20;99.90
7129;DHT22;3606;52.930;8.644;2023-02-15T02:22:18;-0.20;99.90
7129;DHT22;3606;52.930;8.644;2023-02-15T02:33:53;0.40;99.90
7129;DHT22;3606;52.930;8.644;2023-02-15T02:36:41;0.30;99.90
7129;DHT22;3606;52.930;8.644;2023-02-15T02:42:16;0.00;99.90
7129;DHT22;3606;52.930;8.644;2023-02-15T02:44:47;-0.10;99.90
7129;DHT22;3606;52.930;8.644;2023-02-15T02:49:46;-0.40;99.90
7129;DHT22;3606;52.930;8.644;2023-02-15T03:00:25;-0.40;99.90
7129;DHT22;3606;52.930;8.644;2023-02-15T03:03:30;-0.30;99.90
7129;DHT22;3606;52.930;8.644;2023-02-15T03:05:49;-0.20;99.90
7129;DHT22;3606;52.930;8.644;2023-02-15T03:08:19;-0.30;99.90
7129;DHT22;3606;52.930;8.644;2023-02-15T03:10:48;-0.40;99.90
7129;DHT22;3606;52.930;8.644;2023-02-15T03:13:17;-0.50;99.90
7129;DHT22;3606;52.930;8.644;2023-02-15T03:15:44;-0.60;99.90
7129;DHT22;3606;52.930;8.644;2023-02-15T03:18:35;-0.70;99.90
7129;DHT22;3606;52.930;8.644;2023-02-15T03:21:02;-0.60;99.90
7129;DHT22;3606;52.930;8.644;2023-02-15T03:23:30;-0.60;99.90
7129;DHT22;3606;52.930;8.644;2023-02-15T03:26:01;-0.50;99.90
7129;DHT22;3606;52.930;8.644;2023-02-15T03:28:48;-0.40;99.90
7129;DHT22;3606;52.930;8.644;2023-02-15T03:31:17;-0.40;99.90
7129;DHT22;3606;52.930;8.644;2023-02-15T03:33:54;-0.50;99.90
7129;DHT22;3606;52.930;8.644;2023-02-15T03:36:31;-0.70;99.90
7129;DHT22;3606;52.930;8.644;2023-02-15T03:41:37;-0.80;99.90
7129;DHT22;3606;52.930;8.644;2023-02-15T03:44:10;-0.90;99.90
7129;DHT22;3606;52.930;8.644;2023-02-15T03:46:46;-0.90;99.90
7129;DHT22;3606;52.930;8.644;2023-02-15T03:49:26;-0.90;99.90
7129;DHT22;3606;52.930;8.644;2023-02-15T03:51:56;-1.00;99.90
7129;DHT22;3606;52.930;8.644;2023-02-15T03:54:28;-1.10;99.90
7129;DHT22;3606;52.930;8.644;2023-02-15T03:57:20;-1.20;99.90
7129;DHT22;3606;52.930;8.644;2023-02-15T04:03:17;-0.70;99.90
7129;DHT22;3606;52.930;8.644;2023-02-15T04:05:46;-0.60;99.90
7129;DHT22;3606;52.930;8.644;2023-02-15T04:08:12;-0.60;99.90
7129;DHT22;3606;52.930;8.644;2023-02-15T04:10:38;-0.60;99.90
7129;DHT22;3606;52.930;8.644;2023-02-15T04:13:30;-0.60;99.90
7129;DHT22;3606;52.930;8.644;2023-02-15T04:15:55;-0.60;99.90
7129;DHT22;3606;52.930;8.644;2023-02-15T04:21:17;-0.70;99.90
7129;DHT22;3606;52.930;8.644;2023-02-15T04:24:02;-0.70;99.90
7129;DHT22;3606;52.930;8.644;2023-02-15T04:26:46;-0.90;99.90
7129;DHT22;3606;52.930;8.644;2023-02-15T04:29:14;-0.90;99.90
7129;DHT22;3606;52.930;8.644;2023-02-15T04:31:40;-1.00;99.90
7129;DHT22;3606;52.930;8.644;2023-02-15T04:34:06;-1.10;99.90
7129;DHT22;3606;52.930;8.644;2023-02-15T04:36:32;-1.00;99.90
7129;DHT22;3606;52.930;8.644;2023-02-15T04:38:57;-0.80;99.90
7129;DHT22;3606;52.930;8.644;2023-02-15T04:41:23;-0.80;99.90
7129;DHT22;3606;52.930;8.644;2023-02-15T04:43:48;-0.80;99.90
7129;DHT22;3606;52.930;8.644;2023-02-15T04:46:14;-0.80;99.90
7129;DHT22;3606;52.930;8.644;2023-02-15T04:48:40;-0.80;99.90
7129;DHT22;3606;52.930;8.644;2023-02-15T04:51:06;-0.90;99.90
7129;DHT22;3606;52.930;8.644;2023-02-15T04:53:32;-0.90;99.90
7129;DHT22;3606;52.930;8.644;2023-02-15T04:55:58;-0.80;99.90
7129;DHT22;3606;52.930;8.644;2023-02-15T04:58:23;-0.90;99.90
7129;DHT22;3606;52.930;8.644;2023-02-15T05:00:49;-0.90;99.90
7129;DHT22;3606;52.930;8.644;2023-02-15T05:03:15;-0.90;99.90
7129;DHT22;3606;52.930;8.644;2023-02-15T05:05:40;-1.00;99.90
7129;DHT22;3606;52.930;8.644;2023-02-15T05:08:06;-1.10;99.90
7129;DHT22;3606;52.930;8.644;2023-02-15T05:10:31;-1.20;99.90
7129;DHT22;3606;52.930;8.644;2023-02-15T05:12:57;-1.30;99.90
7129;DHT22;3606;52.930;8.644;2023-02-15T05:15:23;-1.10;99.90
7129;DHT22;3606;52.930;8.644;2023-02-15T05:17:48;-1.10;99.90
7129;DHT22;3606;52.930;8.644;2023-02-15T05:20:14;-1.10;99.90
7129;DHT22;3606;52.930;8.644;2023-02-15T05:22:40;-1.20;99.90
7129;DHT22;3606;52.930;8.644;2023-02-15T05:25:07;-1.20;99.90
7129;DHT22;3606;52.930;8.644;2023-02-15T05:27:51;-1.30;99.90
7129;DHT22;3606;52.930;8.644;2023-02-15T05:30:35;-1.30;99.90
7129;DHT22;3606;52.930;8.644;2023-02-15T05:33:01;-1.30;99.90
7129;DHT22;3606;52.930;8.644;2023-02-15T05:35:27;-1.30;99.90
7129;DHT22;3606;52.930;8.644;2023-02-15T05:37:52;-1.30;99.90
7129;DHT22;3606;52.930;8.644;2023-02-15T05:40:18;-1.20;99.90
7129;DHT22;3606;52.930;8.644;2023-02-15T05:42:44;-1.10;99.90
7129;DHT22;3606;52.930;8.644;2023-02-15T05:45:09;-1.00;99.90
7129;DHT22;3606;52.930;8.644;2023-02-15T05:47:35;-1.00;99.90
7129;DHT22;3606;52.930;8.644;2023-02-15T05:50:00;-1.00;99.90
7129;DHT22;3606;52.930;8.644;2023-02-15T05:52:26;-1.10;99.90
7129;DHT22;3606;52.930;8.644;2023-02-15T05:54:51;-1.20;99.90
7129;DHT22;3606;52.930;8.644;2023-02-15T05:57:17;-1.10;99.90
7129;DHT22;3606;52.930;8.644;2023-02-15T05:59:43;-1.10;99.90
7129;DHT22;3606;52.930;8.644;2023-02-15T06:02:08;-1.20;99.90
7129;DHT22;3606;52.930;8.644;2023-02-15T06:04:34;-1.30;99.90
7129;DHT22;3606;52.930;8.644;2023-02-15T06:06:59;-1.30;99.90
7129;DHT22;3606;52.930;8.644;2023-02-15T06:09:25;-1.30;99.90
7129;DHT22;3606;52.930;8.644;2023-02-15T06:11:50;-1.30;99.90
7129;DHT22;3606;52.930;8.644;2023-02-15T06:14:16;-1.30;99.90
7129;DHT22;3606;52.930;8.644;2023-02-15T06:16:42;-1.30;99.90
7129;DHT22;3606;52.930;8.644;2023-02-15T06:19:07;-1.30;99.90
7129;DHT22;3606;52.930;8.644;2023-02-15T06:21:33;-1.30;99.90
7129;DHT22;3606;52.930;8.644;2023-02-15T06:23:58;-1.40;99.90
7129;DHT22;3606;52.930;8.644;2023-02-15T06:26:24;-1.40;99.90
7129;DHT22;3606;52.930;8.644;2023-02-15T06:28:49;-1.50;99.90
7129;DHT22;3606;52.930;8.644;2023-02-15T06:31:15;-1.60;99.90
7129;DHT22;3606;52.930;8.644;2023-02-15T06:33:40;-1.70;99.90
7129;DHT22;3606;52.930;8.644;2023-02-15T06:36:06;-1.70;99.90
7129;DHT22;3606;52.930;8.644;2023-02-15T06:38:32;-1.50;99.90
7129;DHT22;3606;52.930;8.644;2023-02-15T06:40:57;-1.30;99.90
7129;DHT22;3606;52.930;8.644;2023-02-15T06:43:23;-1.20;99.90
7129;DHT22;3606;52.930;8.644;2023-02-15T06:45:48;-1.30;99.90
7129;DHT22;3606;52.930;8.644;2023-02-15T06:48:15;-1.30;99.90
7129;DHT22;3606;52.930;8.644;2023-02-15T06:50:40;-1.10;99.90
7129;DHT22;3606;52.930;8.644;2023-02-15T06:53:06;-1.10;99.90
7129;DHT22;3606;52.930;8.644;2023-02-15T06:55:32;-1.10;99.90
7129;DHT22;3606;52.930;8.644;2023-02-15T06:57:57;-1.00;99.90
7129;DHT22;3606;52.930;8.644;2023-02-15T07:00:23;-1.10;99.90
7129;DHT22;3606;52.930;8.644;2023-02-15T07:02:56;-1.10;99.90
7129;DHT22;3606;52.930;8.644;2023-02-15T07:05:23;-1.10;99.90
7129;DHT22;3606;52.930;8.644;2023-02-15T07:07:49;-1.10;99.90
7129;DHT22;3606;52.930;8.644;2023-02-15T07:10:15;-1.00;99.90
7129;DHT22;3606;52.930;8.644;2023-02-15T07:12:40;-0.90;99.90
7129;DHT22;3606;52.930;8.644;2023-02-15T07:15:14;-0.90;99.90
7129;DHT22;3606;52.930;8.644;2023-02-15T07:17:41;-0.80;99.90
7129;DHT22;3606;52.930;8.644;2023-02-15T07:20:20;-0.70;99.90
7129;DHT22;3606;52.930;8.644;2023-02-15T07:22:47;-0.60;99.90
7129;DHT22;3606;52.930;8.644;2023-02-15T07:25:13;-0.50;99.90
7129;DHT22;3606;52.930;8.644;2023-02-15T07:27:39;-0.40;99.90
7129;DHT22;3606;52.930;8.644;2023-02-15T07:30:07;-0.30;99.90
7129;DHT22;3606;52.930;8.644;2023-02-15T07:32:33;-0.20;99.90
7129;DHT22;3606;52.930;8.644;2023-02-15T07:34:59;-0.10;99.90
7129;DHT22;3606;52.930;8.644;2023-02-15T07:37:25;-0.10;99.90
7129;DHT22;3606;52.930;8.644;2023-02-15T07:39:51;0.00;99.90
7129;DHT22;3606;52.930;8.644;2023-02-15T07:42:16;0.00;99.90
7129;DHT22;3606;52.930;8.644;2023-02-15T07:44:43;0.00;99.90
7129;DHT22;3606;52.930;8.644;2023-02-15T07:47:08;0.10;99.90
7129;DHT22;3606;52.930;8.644;2023-02-15T07:49:34;0.30;99.90
7129;DHT22;3606;52.930;8.644;2023-02-15T07:52:00;0.50;99.90
7129;DHT22;3606;52.930;8.644;2023-02-15T07:54:27;0.80;99.90
7129;DHT22;3606;52.930;8.644;2023-02-15T07:56:52;1.50;99.90
7129;DHT22;3606;52.930;8.644;2023-02-15T07:59:18;2.50;99.90
7129;DHT22;3606;52.930;8.644;2023-02-15T08:01:43;3.30;99.90
7129;DHT22;3606;52.930;8.644;2023-02-15T08:04:09;4.00;99.90
7129;DHT22;3606;52.930;8.644;2023-02-15T08:06:37;4.50;99.90
7129;DHT22;3606;52.930;8.644;2023-02-15T08:09:04;4.90;99.90
7129;DHT22;3606;52.930;8.644;2023-02-15T08:11:32;5.30;99.90
7129;DHT22;3606;52.930;8.644;2023-02-15T08:19:05;7.00;99.90
7129;DHT22;3606;52.930;8.644;2023-02-15T08:21:32;7.40;99.90
7129;DHT22;3606;52.930;8.644;2023-02-15T08:23:58;7.70;99.90
7129;DHT22;3606;52.930;8.644;2023-02-15T08:26:25;7.80;99.90
7129;DHT22;3606;52.930;8.644;2023-02-15T08:28:52;8.00;99.90
7129;DHT22;3606;52.930;8.644;2023-02-15T08:31:18;8.30;99.90
7129;DHT22;3606;52.930;8.644;2023-02-15T08:33:44;8.50;1.00
7129;DHT22;3606;52.930;8.644;2023-02-15T08:36:13;8.60;1.00
7129;DHT22;3606;52.930;8.644;2023-02-15T08:38:39;8.80;1.00
7129;DHT22;3606;52.930;8.644;2023-02-15T08:43:40;9.70;1.00
7129;DHT22;3606;52.930;8.644;2023-02-15T08:46:06;10.30;1.00
7129;DHT22;3606;52.930;8.644;2023-02-15T08:48:32;11.00;1.00
7129;DHT22;3606;52.930;8.644;2023-02-15T08:50:57;11.60;1.00
7129;DHT22;3606;52.930;8.644;2023-02-15T08:53:23;12.00;99.90
7129;DHT22;3606;52.930;8.644;2023-02-15T08:55:58;12.40;1.00
7129;DHT22;3606;52.930;8.644;2023-02-15T08:58:24;12.10;99.90
7129;DHT22;3606;52.930;8.644;2023-02-15T09:00:50;12.20;1.00
7129;DHT22;3606;52.930;8.644;2023-02-15T09:03:16;12.40;1.00
7129;DHT22;3606;52.930;8.644;2023-02-15T09:05:42;12.50;1.00
7129;DHT22;3606;52.930;8.644;2023-02-15T09:08:07;12.70;1.00
7129;DHT22;3606;52.930;8.644;2023-02-15T09:10:33;12.90;1.00
7129;DHT22;3606;52.930;8.644;2023-02-15T09:12:59;13.10;1.00
7129;DHT22;3606;52.930;8.644;2023-02-15T09:15:24;13.00;41.60
7129;DHT22;3606;52.930;8.644;2023-02-15T09:17:50;12.70;99.90
7129;DHT22;3606;52.930;8.644;2023-02-15T09:20:15;12.60;71.40
7129;DHT22;3606;52.930;8.644;2023-02-15T09:22:41;12.80;1.00
7129;DHT22;3606;52.930;8.644;2023-02-15T09:25:07;12.60;99.90
7129;DHT22;3606;52.930;8.644;2023-02-15T09:27:33;13.00;1.00
7129;DHT22;3606;52.930;8.644;2023-02-15T09:29:58;13.10;99.90
7129;DHT22;3606;52.930;8.644;2023-02-15T09:32:24;12.60;1.00
7129;DHT22;3606;52.930;8.644;2023-02-15T09:34:50;12.90;58.30
7129;DHT22;3606;52.930;8.644;2023-02-15T09:37:15;13.10;1.00
7129;DHT22;3606;52.930;8.644;2023-02-15T09:39:43;13.50;1.00
7129;DHT22;3606;52.930;8.644;2023-02-15T09:50:17;14.20;1.00
7129;DHT22;3606;52.930;8.644;2023-02-15T09:52:47;14.90;1.00
7129;DHT22;3606;52.930;8.644;2023-02-15T10:01:07;16.10;99.90
7129;DHT22;3606;52.930;8.644;2023-02-15T10:06:35;17.30;1.00
7129;DHT22;3606;52.930;8.644;2023-02-15T10:09:30;17.60;99.90
7129;DHT22;3606;52.930;8.644;2023-02-15T10:20:56;17.00;99.90
7129;DHT22;3606;52.930;8.644;2023-02-15T10:26:16;16.50;1.00
7129;DHT22;3606;52.930;8.644;2023-02-15T10:29:12;16.90;99.90
7129;DHT22;3606;52.930;8.644;2023-02-15T10:31:49;16.80;1.00
7129;DHT22;3606;52.930;8.644;2023-02-15T10:34:26;17.20;99.90
7129;DHT22;3606;52.930;8.644;2023-02-15T10:39:43;16.20;99.90
7129;DHT22;3606;52.930;8.644;2023-02-15T10:42:41;16.40;99.90
7129;DHT22;3606;52.930;8.644;2023-02-15T10:51:24;16.10;99.90
7129;DHT22;3606;52.930;8.644;2023-02-15T10:54:09;16.10;99.90
7129;DHT22;3606;52.930;8.644;2023-02-15T10:56:46;16.00;99.90
7129;DHT22;3606;52.930;8.644;2023-02-15T11:07:36;15.30;99.90
7129;DHT22;3606;52.930;8.644;2023-02-15T11:10:27;15.30;99.90
7129;DHT22;3606;52.930;8.644;2023-02-15T11:12:56;15.20;99.90
7129;DHT22;3606;52.930;8.644;2023-02-15T11:15:36;15.60;99.90
7129;DHT22;3606;52.930;8.644;2023-02-15T11:18:13;16.20;99.90
7129;DHT22;3606;52.930;8.644;2023-02-15T11:23:21;16.10;99.90
7129;DHT22;3606;52.930;8.644;2023-02-15T11:26:13;15.70;99.90
7129;DHT22;3606;52.930;8.644;2023-02-15T11:28:47;15.30;99.90
7129;DHT22;3606;52.930;8.644;2023-02-15T11:31:20;15.70;99.90
7129;DHT22;3606;52.930;8.644;2023-02-15T11:33:51;15.80;99.90
7129;DHT22;3606;52.930;8.644;2023-02-15T11:36:21;16.10;99.90
7129;DHT22;3606;52.930;8.644;2023-02-15T11:38:52;16.80;99.90
7129;DHT22;3606;52.930;8.644;2023-02-15T11:41:24;16.60;99.90
7129;DHT22;3606;52.930;8.644;2023-02-15T11:46:37;16.70;99.90
7129;DHT22;3606;52.930;8.644;2023-02-15T11:49:26;16.40;99.90
7129;DHT22;3606;52.930;8.644;2023-02-15T11:51:53;16.10;99.90
7129;DHT22;3606;52.930;8.644;2023-02-15T11:54:21;15.80;99.90
7129;DHT22;3606;52.930;8.644;2023-02-15T11:56:49;15.90;99.90
7129;DHT22;3606;52.930;8.644;2023-02-15T11:59:21;15.60;99.90
7129;DHT22;3606;52.930;8.644;2023-02-15T12:01:52;15.70;99.90
7129;DHT22;3606;52.930;8.644;2023-02-15T12:04:39;15.40;99.90
7129;DHT22;3606;52.930;8.644;2023-02-15T12:07:36;15.00;99.90
7129;DHT22;3606;52.930;8.644;2023-02-15T12:10:05;14.80;99.90
7129;DHT22;3606;52.930;8.644;2023-02-15T12:12:40;15.00;99.90
7129;DHT22;3606;52.930;8.644;2023-02-15T12:15:10;15.30;99.90
7129;DHT22;3606;52.930;8.644;2023-02-15T12:17:48;15.40;1.00
7129;DHT22;3606;52.930;8.644;2023-02-15T12:22:55;14.90;99.90
7129;DHT22;3606;52.930;8.644;2023-02-15T12:28:03;14.00;1.00
7129;DHT22;3606;52.930;8.644;2023-02-15T12:30:30;13.90;1.00
7129;DHT22;3606;52.930;8.644;2023-02-15T12:35:40;14.40;1.00
7129;DHT22;3606;52.930;8.644;2023-02-15T12:40:34;14.20;1.00
7129;DHT22;3606;52.930;8.644;2023-02-15T12:43:01;14.20;1.00
7129;DHT22;3606;52.930;8.644;2023-02-15T12:45:34;14.10;1.00
7129;DHT22;3606;52.930;8.644;2023-02-15T12:48:09;13.80;1.00
7129;DHT22;3606;52.930;8.644;2023-02-15T12:50:36;13.80;1.00
7129;DHT22;3606;52.930;8.644;2023-02-15T12:53:22;14.10;1.00
7129;DHT22;3606;52.930;8.644;2023-02-15T12:55:58;14.00;1.00
7129;DHT22;3606;52.930;8.644;2023-02-15T12:58:28;14.00;1.00
7129;DHT22;3606;52.930;8.644;2023-02-15T13:01:17;13.70;1.00
7129;DHT22;3606;52.930;8.644;2023-02-15T13:06:20;13.50;46.80
7129;DHT22;3606;52.930;8.644;2023-02-15T13:08:50;13.90;1.00
7129;DHT22;3606;52.930;8.644;2023-02-15T13:11:22;13.90;1.00
7129;DHT22;3606;52.930;8.644;2023-02-15T13:13:59;14.00;1.00
7129;DHT22;3606;52.930;8.644;2023-02-15T13:16:37;14.30;1.00
7129;DHT22;3606;52.930;8.644;2023-02-15T13:19:14;14.30;1.00
7129;DHT22;3606;52.930;8.644;2023-02-15T13:21:49;14.20;1.00
7129;DHT22;3606;52.930;8.644;2023-02-15T13:24:53;14.00;1.00
7129;DHT22;3606;52.930;8.644;2023-02-15T13:27:17;13.80;1.00
7129;DHT22;3606;52.930;8.644;2023-02-15T13:29:51;13.60;1.00
7129;DHT22;3606;52.930;8.644;2023-02-15T13:32:28;13.60;1.60
7129;DHT22;3606;52.930;8.644;2023-02-15T13:34:57;13.30;63.30
7129;DHT22;3606;52.930;8.644;2023-02-15T13:37:49;13.40;1.00
7129;DHT22;3606;52.930;8.644;2023-02-15T13:40:25;13.30;99.90
7129;DHT22;3606;52.930;8.644;2023-02-15T13:42:59;13.50;94.00
7129;DHT22;3606;52.930;8.644;2023-02-15T13:45:33;13.70;49.70
7129;DHT22;3606;52.930;8.644;2023-02-15T13:59:11;14.20;1.00
7129;DHT22;3606;52.930;8.644;2023-02-15T14:01:46;14.10;1.00
7129;DHT22;3606;52.930;8.644;2023-02-15T14:04:29;14.20;1.00
7129;DHT22;3606;52.930;8.644;2023-02-15T14:17:28;14.70;99.90
7129;DHT22;3606;52.930;8.644;2023-02-15T14:22:45;14.30;99.90
7129;DHT22;3606;52.930;8.644;2023-02-15T14:30:30;14.30;99.90
7129;DHT22;3606;52.930;8.644;2023-02-15T14:33:10;14.10;99.90
7129;DHT22;3606;52.930;8.644;2023-02-15T14:35:42;14.10;99.90
7129;DHT22;3606;52.930;8.644;2023-02-15T14:46:49;12.50;99.90
7129;DHT22;3606;52.930;8.644;2023-02-15T14:49:27;12.30;99.90
7129;DHT22;3606;52.930;8.644;2023-02-15T14:51:57;12.20;1.00
7129;DHT22;3606;52.930;8.644;2023-02-15T15:00:38;11.40;99.90
7129;DHT22;3606;52.930;8.644;2023-02-15T15:02:48;11.30;99.90
7129;DHT22;3606;52.930;8.644;2023-02-15T15:05:29;11.20;1.00
7129;DHT22;3606;52.930;8.644;2023-02-15T15:07:58;11.10;1.00
7129;DHT22;3606;52.930;8.644;2023-02-15T15:12:55;11.10;99.90
7129;DHT22;3606;52.930;8.644;2023-02-15T15:18:02;11.40;21.20
7129;DHT22;3606;52.930;8.644;2023-02-15T15:31:04;11.40;99.90
7129;DHT22;3606;52.930;8.644;2023-02-15T15:33:58;11.10;1.00
7129;DHT22;3606;52.930;8.644;2023-02-15T15:37:02;10.90;99.90
7129;DHT22;3606;52.930;8.644;2023-02-15T15:50:34;9.90;99.90
7129;DHT22;3606;52.930;8.644;2023-02-15T15:53:05;9.70;86.20
7129;DHT22;3606;52.930;8.644;2023-02-15T15:55:32;9.60;99.90
7129;DHT22;3606;52.930;8.644;2023-02-15T15:58:04;9.40;1.00
7129;DHT22;3606;52.930;8.644;2023-02-15T16:03:02;9.10;99.90
7129;DHT22;3606;52.930;8.644;2023-02-15T16:05:35;9.00;99.90
7129;DHT22;3606;52.930;8.644;2023-02-15T16:08:01;8.80;1.00
7129;DHT22;3606;52.930;8.644;2023-02-15T16:10:28;8.70;1.00
7129;DHT22;3606;52.930;8.644;2023-02-15T16:12:55;8.50;99.90
7129;DHT22;3606;52.930;8.644;2023-02-15T16:15:45;8.40;1.00
7129;DHT22;3606;52.930;8.644;2023-02-15T16:18:16;8.20;99.90
7129;DHT22;3606;52.930;8.644;2023-02-15T16:20:52;8.10;1.00
7129;DHT22;3606;52.930;8.644;2023-02-15T16:28:53;7.80;1.00
7129;DHT22;3606;52.930;8.644;2023-02-15T16:31:20;7.70;22.90
7129;DHT22;3606;52.930;8.644;2023-02-15T16:33:48;7.60;99.90
7129;DHT22;3606;52.930;8.644;2023-02-15T16:36:27;7.50;99.90
7129;DHT22;3606;52.930;8.644;2023-02-15T16:41:24;7.20;37.90
7129;DHT22;3606;52.930;8.644;2023-02-15T16:43:53;7.20;70.50
7129;DHT22;3606;52.930;8.644;2023-02-15T16:46:28;7.00;99.90
7129;DHT22;3606;52.930;8.644;2023-02-15T16:48:58;7.00;1.00
7129;DHT22;3606;52.930;8.644;2023-02-15T16:51:29;6.90;1.00
7129;DHT22;3606;52.930;8.644;2023-02-15T16:53:56;6.80;1.00
7129;DHT22;3606;52.930;8.644;2023-02-15T16:56:30;6.70;99.90
7129;DHT22;3606;52.930;8.644;2023-02-15T16:58:57;6.60;99.90
7129;DHT22;3606;52.930;8.644;2023-02-15T17:01:26;6.50;99.90
7129;DHT22;3606;52.930;8.644;2023-02-15T17:04:11;6.50;1.00
7129;DHT22;3606;52.930;8.644;2023-02-15T17:06:37;6.60;1.00
7129;DHT22;3606;52.930;8.644;2023-02-15T17:09:06;6.60;1.00
7129;DHT22;3606;52.930;8.644;2023-02-15T17:11:42;6.50;1.00
7129;DHT22;3606;52.930;8.644;2023-02-15T17:16:53;6.40;99.90
7129;DHT22;3606;52.930;8.644;2023-02-15T17:19:28;6.30;1.00
7129;DHT22;3606;52.930;8.644;2023-02-15T17:21:57;6.30;1.00
7129;DHT22;3606;52.930;8.644;2023-02-15T17:24:34;6.40;1.00
7129;DHT22;3606;52.930;8.644;2023-02-15T17:27:23;6.30;1.00
7129;DHT22;3606;52.930;8.644;2023-02-15T17:29:50;6.30;1.00
7129;DHT22;3606;52.930;8.644;2023-02-15T17:32:22;6.20;1.00
7129;DHT22;3606;52.930;8.644;2023-02-15T17:35:28;6.20;1.00
7129;DHT22;3606;52.930;8.644;2023-02-15T17:38:18;6.20;1.00
7129;DHT22;3606;52.930;8.644;2023-02-15T17:40:44;6.20;1.00
7129;DHT22;3606;52.930;8.644;2023-02-15T17:43:10;6.20;1.00
7129;DHT22;3606;52.930;8.644;2023-02-15T17:45:42;6.30;1.00
7129;DHT22;3606;52.930;8.644;2023-02-15T17:50:46;6.20;99.90
7129;DHT22;3606;52.930;8.644;2023-02-15T17:53:13;6.20;99.90
7129;DHT22;3606;52.930;8.644;2023-02-15T17:55:40;6.10;99.90
7129;DHT22;3606;52.930;8.644;2023-02-15T17:58:10;6.10;99.90
7129;DHT22;3606;52.930;8.644;2023-02-15T18:00:39;6.00;1.00
7129;DHT22;3606;52.930;8.644;2023-02-15T18:03:28;6.00;1.00
7129;DHT22;3606;52.930;8.644;2023-02-15T18:06:13;5.90;1.00
7129;DHT22;3606;52.930;8.644;2023-02-15T18:08:57;5.80;1.00
7129;DHT22;3606;52.930;8.644;2023-02-15T18:11:41;5.70;1.00
7129;DHT22;3606;52.930;8.644;2023-02-15T18:14:12;5.50;1.00
7129;DHT22;3606;52.930;8.644;2023-02-15T18:16:40;5.50;1.00
7129;DHT22;3606;52.930;8.644;2023-02-15T18:19:25;5.40;1.00
7129;DHT22;3606;52.930;8.644;2023-02-15T18:21:52;5.50;46.80
7129;DHT22;3606;52.930;8.644;2023-02-15T18:24:22;5.50;43.50
7129;DHT22;3606;52.930;8.644;2023-02-15T18:26:52;5.50;33.00
7129;DHT22;3606;52.930;8.644;2023-02-15T18:29:18;5.60;2.80
7129;DHT22;3606;52.930;8.644;2023-02-15T18:31:45;5.60;6.20
7129;DHT22;3606;52.930;8.644;2023-02-15T18:34:29;5.60;1.00
7129;DHT22;3606;52.930;8.644;2023-02-15T18:36:57;5.70;1.00
7129;DHT22;3606;52.930;8.644;2023-02-15T18:41:56;5.70;1.00
7129;DHT22;3606;52.930;8.644;2023-02-15T18:44:21;5.60;1.00
7129;DHT22;3606;52.930;8.644;2023-02-15T18:46:47;5.50;1.00
7129;DHT22;3606;52.930;8.644;2023-02-15T18:49:13;5.30;1.00
7129;DHT22;3606;52.930;8.644;2023-02-15T18:51:38;5.40;1.60
7129;DHT22;3606;52.930;8.644;2023-02-15T18:54:10;5.50;1.00
7129;DHT22;3606;52.930;8.644;2023-02-15T18:56:39;5.50;1.00
7129;DHT22;3606;52.930;8.644;2023-02-15T18:59:05;5.50;1.00
7129;DHT22;3606;52.930;8.644;2023-02-15T19:01:31;5.50;1.00
7129;DHT22;3606;52.930;8.644;2023-02-15T19:03:56;5.50;1.00
7129;DHT22;3606;52.930;8.644;2023-02-15T19:06:22;5.40;1.00
7129;DHT22;3606;52.930;8.644;2023-02-15T19:08:50;5.30;1.00
7129;DHT22;3606;52.930;8.644;2023-02-15T19:11:23;5.20;1.00
7129;DHT22;3606;52.930;8.644;2023-02-15T19:13:50;5.20;46.00
7129;DHT22;3606;52.930;8.644;2023-02-15T19:18:54;5.20;31.10
7129;DHT22;3606;52.930;8.644;2023-02-15T19:21:19;5.20;8.70
7129;DHT22;3606;52.930;8.644;2023-02-15T19:23:50;5.10;1.00
7129;DHT22;3606;52.930;8.644;2023-02-15T19:26:17;5.00;39.90
7129;DHT22;3606;52.930;8.644;2023-02-15T19:28:44;5.00;91.40
7129;DHT22;3606;52.930;8.644;2023-02-15T19:31:13;5.00;99.90
7129;DHT22;3606;52.930;8.644;2023-02-15T19:33:39;5.10;99.90
7129;DHT22;3606;52.930;8.644;2023-02-15T19:36:07;5.20;99.90
7129;DHT22;3606;52.930;8.644;2023-02-15T19:38:38;5.20;99.90
7129;DHT22;3606;52.930;8.644;2023-02-15T19:41:07;5.20;99.80
7129;DHT22;3606;52.930;8.644;2023-02-15T19:43:33;5.20;85.50
7129;DHT22;3606;52.930;8.644;2023-02-15T19:46:00;5.20;44.30
7129;DHT22;3606;52.930;8.644;2023-02-15T19:48:25;5.20;21.50
7129;DHT22;3606;52.930;8.644;2023-02-15T19:50:51;5.10;10.90